Time;durP1;ratioP1;P1;durP2;ratioP2;P2;SDS_P1;SDS_P2;PMS_P1;PMS_P2;Temp;Humidity;BMP_temperature;BMP_pressure;BME280_temperature;BME280_humidity;BME280_pressure;Samples;Min_cycle;Max_cycle;Signal;HPM_P1;HPM_P2
2021/11/05 00:01:16;;;;;;;9.20;5.65;;;;;;;12.02;100.00;99920.44;6296813;28;20044;-76
2021/11/05 00:04:17;;;;;;;10.00;5.28;;;;;;;12.04;100.00;99906.31;6297107;28;20083;-76
2021/11/05 00:07:17;;;;;;;7.20;4.70;;;;;;;12.03;100.00;99922.97;6298146;28;20044;-75
2021/11/05 00:10:19;;;;;;;10.98;4.80;;;;;;;12.00;100.00;99928.38;6263916;28;20398;-76
2021/11/05 00:13:20;;;;;;;6.88;4.45;;;;;;;12.00;100.00;99940.63;6297032;28;20505;-76
2021/11/05 00:16:21;;;;;;;7.47;4.47;;;;;;;11.96;100.00;99941.78;6298074;28;20037;-76
2021/11/05 00:19:21;;;;;;;9.07;4.70;;;;;;;11.95;100.00;99943.56;6296910;28;20044;-76
2021/11/05 00:22:22;;;;;;;8.52;4.68;;;;;;;11.89;100.00;99949.22;6274731;28;20056;-76
2021/11/05 00:25:23;;;;;;;11.82;4.57;;;;;;;11.88;100.00;99947.50;6272932;28;20033;-76
2021/11/05 00:28:24;;;;;;;7.47;4.40;;;;;;;11.83;100.00;99960.88;6272989;28;20407;-76
2021/11/05 00:31:25;;;;;;;9.43;4.88;;;;;;;11.89;100.00;99959.69;6271862;28;20095;-76
2021/11/05 00:34:25;;;;;;;7.93;4.32;;;;;;;11.89;100.00;99959.69;6271620;28;20045;-76
2021/11/05 00:37:26;;;;;;;8.23;4.38;;;;;;;11.84;100.00;99977.41;6271948;28;20087;-76
2021/11/05 00:40:29;;;;;;;6.55;4.30;;;;;;;11.77;100.00;99981.38;6271840;28;20139;-76
2021/11/05 00:43:30;;;;;;;6.93;4.00;;;;;;;11.86;100.00;99992.06;6272813;28;20506;-76
2021/11/05 00:46:30;;;;;;;5.78;3.30;;;;;;;11.88;100.00;99979.75;6271153;28;20044;-72
2021/11/05 00:49:31;;;;;;;5.88;3.40;;;;;;;11.72;100.00;99986.94;6253701;28;20120;-72
2021/11/05 00:52:32;;;;;;;6.88;3.55;;;;;;;11.68;100.00;99983.66;6237592;28;20041;-72
2021/11/05 00:55:33;;;;;;;5.78;3.85;;;;;;;11.61;100.00;99971.97;6270381;28;20044;-72
2021/11/05 00:58:33;;;;;;;6.72;3.83;;;;;;;11.53;100.00;99958.56;6270493;28;20087;-73
2021/11/05 01:01:34;;;;;;;8.43;4.10;;;;;;;11.49;100.00;99957.09;6271456;28;20041;-72
2021/11/05 01:04:35;;;;;;;4.93;3.55;;;;;;;11.55;100.00;99945.38;6270385;28;20049;-72
2021/11/05 01:07:36;;;;;;;6.28;4.07;;;;;;;11.62;100.00;99933.59;6270164;28;20048;-71
2021/11/05 01:10:37;;;;;;;6.03;3.65;;;;;;;11.64;100.00;99923.88;6275349;28;20041;-76
2021/11/05 01:13:39;;;;;;;8.33;3.30;;;;;;;11.66;100.00;99917.59;6277370;28;20098;-76
2021/11/05 01:16:40;;;;;;;7.07;3.63;;;;;;;11.67;100.00;99927.13;6277553;28;20332;-76
2021/11/05 01:19:40;;;;;;;6.22;3.63;;;;;;;11.70;100.00;99926.06;6276874;28;20083;-71
2021/11/05 01:22:43;;;;;;;15.00;4.00;;;;;;;11.71;100.00;99909.44;6258266;28;20064;-72
2021/11/05 01:25:43;;;;;;;4.45;3.38;;;;;;;11.74;100.00;99911.03;6274945;28;20041;-71
2021/11/05 01:28:44;;;;;;;6.25;3.25;;;;;;;11.77;100.00;99905.59;6274675;28;20075;-72
2021/11/05 01:31:45;;;;;;;5.22;3.33;;;;;;;11.75;100.00;99907.47;6258165;28;20122;-71
2021/11/05 01:34:46;;;;;;;4.78;3.38;;;;;;;11.77;100.00;99901.19;6275656;28;20421;-71
2021/11/05 01:37:47;;;;;;;6.15;3.38;;;;;;;11.77;100.00;99900.34;6275876;28;20049;-72
2021/11/05 01:40:48;;;;;;;6.05;3.13;;;;;;;11.78;100.00;99894.19;6274412;28;20037;-71
2021/11/05 01:43:49;;;;;;;10.82;4.30;;;;;;;11.79;100.00;99895.84;6274433;28;20071;-71
2021/11/05 01:46:50;;;;;;;5.63;3.97;;;;;;;11.80;100.00;99895.75;6257724;28;20053;-71
2021/11/05 01:49:51;;;;;;;6.30;4.15;;;;;;;11.74;100.00;99900.56;6275327;28;20554;-72
2021/11/05 01:52:52;;;;;;;7.63;4.23;;;;;;;11.66;100.00;99891.47;6257184;28;20495;-72
2021/11/05 01:55:53;;;;;;;6.97;4.32;;;;;;;11.66;100.00;99896.69;6256493;28;20045;-72
2021/11/05 01:58:53;;;;;;;6.13;4.55;;;;;;;11.62;100.00;99903.06;6256915;28;20045;-72
2021/11/05 02:01:56;;;;;;;4.95;4.10;;;;;;;11.60;100.00;99911.97;6257209;28;20048;-73
2021/11/05 02:04:57;;;;;;;7.35;3.90;;;;;;;11.59;100.00;99911.13;6257441;28;20045;-72
2021/11/05 02:07:59;;;;;;;5.53;3.30;;;;;;;11.58;100.00;99927.72;6273886;28;20086;-71
2021/11/05 02:11:03;;;;;;;6.45;3.67;;;;;;;11.58;100.00;99917.28;6274170;28;20045;-76
2021/11/05 02:14:05;;;;;;;7.10;3.65;;;;;;;11.59;100.00;99905.03;6275940;28;20047;-76
2021/11/05 02:17:06;;;;;;;5.25;3.60;;;;;;;11.56;100.00;99903.47;6275072;28;20037;-76
2021/11/05 02:20:08;;;;;;;6.32;3.65;;;;;;;11.56;100.00;99919.16;6258219;28;20048;-76
2021/11/05 02:23:10;;;;;;;7.63;3.78;;;;;;;11.55;100.00;99927.97;6273923;28;20052;-72
2021/11/05 02:26:10;;;;;;;11.63;4.35;;;;;;;11.55;100.00;99933.19;6273422;28;20060;-72
2021/11/05 02:29:12;;;;;;;6.50;3.35;;;;;;;11.50;100.00;99938.69;6273359;28;20099;-72
2021/11/05 02:32:13;;;;;;;5.35;3.47;;;;;;;11.50;100.00;99941.31;6256909;28;20041;-72
2021/11/05 02:35:16;;;;;;;6.47;3.47;;;;;;;11.50;100.00;99951.75;6256648;28;20120;-72
2021/11/05 02:38:18;;;;;;;6.32;3.40;;;;;;;11.57;100.00;99953.97;6274484;28;20041;-72
2021/11/05 02:41:20;;;;;;;6.20;4.03;;;;;;;11.56;100.00;99958.34;6274156;28;20056;-71
2021/11/05 02:44:21;;;;;;;9.70;4.32;;;;;;;11.58;100.00;99959.09;6274354;28;20098;-72
2021/11/05 02:47:27;;;;;;;6.45;3.42;;;;;;;11.56;100.00;99955.75;6272949;28;20037;-72
2021/11/05 02:50:27;;;;;;;6.70;3.50;;;;;;;11.52;100.00;99964.72;6256254;28;20118;-71
2021/11/05 02:53:28;;;;;;;7.38;4.10;;;;;;;11.46;100.00;99962.53;6256209;28;20041;-72
2021/11/05 02:56:29;;;;;;;5.07;3.38;;;;;;;11.45;100.00;99971.31;6272692;28;20052;-72
2021/11/05 02:59:30;;;;;;;7.25;3.70;;;;;;;11.42;100.00;99966.28;6272626;28;20040;-71
2021/11/05 03:02:31;;;;;;;8.02;4.10;;;;;;;11.39;100.00;99969.09;6273557;28;20118;-72
2021/11/05 03:05:31;;;;;;;10.00;3.60;;;;;;;11.38;100.00;99972.63;6272267;28;20045;-71
2021/11/05 03:08:32;;;;;;;7.10;4.18;;;;;;;11.34;100.00;99985.06;6271549;28;20037;-72
2021/11/05 03:11:33;;;;;;;7.43;4.00;;;;;;;11.30;100.00;99994.03;6271626;28;20361;-72
2021/11/05 03:14:34;;;;;;;7.35;4.05;;;;;;;11.27;100.00;100002.91;6271400;28;20069;-71
2021/11/05 03:17:36;;;;;;;6.90;4.32;;;;;;;11.28;100.00;99995.91;6272724;28;20114;-71
2021/11/05 03:20:37;;;;;;;7.27;4.47;;;;;;;11.23;100.00;99982.31;6254937;28;20040;-72
2021/11/05 03:23:37;;;;;;;7.93;4.35;;;;;;;11.22;100.00;99975.41;6273159;28;20502;-72
2021/11/05 03:26:38;;;;;;;7.30;4.40;;;;;;;11.23;100.00;99956.19;6255547;28;20396;-72
2021/11/05 03:29:39;;;;;;;5.72;4.43;;;;;;;11.23;100.00;99957.03;6238827;28;20479;-72
2021/11/05 03:32:41;;;;;;;5.97;4.32;;;;;;;11.23;100.00;99957.03;6271147;28;20049;-72
2021/11/05 03:35:42;;;;;;;7.50;4.88;;;;;;;11.22;100.00;99965.81;6271656;28;20045;-72
2021/11/05 03:38:43;;;;;;;6.35;5.03;;;;;;;11.13;100.00;99950.72;6271648;28;20040;-71
2021/11/05 03:41:44;;;;;;;7.00;4.60;;;;;;;11.09;100.00;99933.59;6271471;28;20075;-72
2021/11/05 03:44:44;;;;;;;5.63;4.53;;;;;;;11.08;100.00;99942.38;6271516;28;20056;-71
2021/11/05 03:47:46;;;;;;;9.68;4.75;;;;;;;11.08;100.00;99939.75;6272657;28;20041;-72
2021/11/05 03:50:47;;;;;;;7.22;4.22;;;;;;;11.12;100.00;99946.47;6271366;28;20053;-72
2021/11/05 03:53:48;;;;;;;5.63;4.32;;;;;;;11.06;100.00;99942.47;6254699;28;20061;-72
2021/11/05 03:56:48;;;;;;;4.65;3.97;;;;;;;11.05;100.00;99953.81;6271263;28;20060;-71
2021/11/05 03:59:49;;;;;;;7.35;4.90;;;;;;;10.96;100.00;99951.81;6271322;28;20049;-71
2021/11/05 04:02:50;;;;;;;7.00;5.25;;;;;;;10.89;100.00;99955.75;6238247;28;20061;-71
2021/11/05 04:05:51;;;;;;;10.13;5.07;;;;;;;10.82;100.00;99957.09;6270495;28;20045;-72
2021/11/05 04:08:53;;;;;;;7.18;4.65;;;;;;;10.84;100.00;99945.59;6270176;28;20140;-71
2021/11/05 04:11:53;;;;;;;;;;;;;;;10.85;100.00;99936.84;6272346;28;20040;-72
2021/11/05 04:14:54;;;;;;;7.40;4.88;;;;;;;10.76;100.00;99945.25;6271973;28;19928;-72
2021/11/05 04:17:55;;;;;;;7.80;5.75;;;;;;;10.78;100.00;99948.59;6270854;28;20072;-72
2021/11/05 04:20:56;;;;;;;6.53;5.00;;;;;;;10.79;100.00;99955.50;6238674;28;20053;-75
2021/11/05 04:23:57;;;;;;;9.25;5.13;;;;;;;10.86;100.00;99963.78;6255526;28;20106;-75
2021/11/05 04:26:58;;;;;;;6.07;4.88;;;;;;;10.89;100.00;99960.97;6271881;28;20041;-75
2021/11/05 04:29:59;;;;;;;11.23;5.30;;;;;;;10.88;100.00;99970.56;6273029;28;20045;-75
2021/11/05 04:33:00;;;;;;;7.70;5.40;;;;;;;10.89;100.00;99974.00;6255402;28;20041;-75
2021/11/05 04:36:03;;;;;;;7.13;5.35;;;;;;;10.87;100.00;99978.50;6271928;28;20100;-75
2021/11/05 04:39:04;;;;;;;8.27;4.88;;;;;;;10.84;100.00;99974.31;6273151;28;20045;-75
2021/11/05 04:42:05;;;;;;;9.25;6.00;;;;;;;10.88;100.00;99986.25;6272785;28;20045;-76
2021/11/05 04:45:06;;;;;;;10.68;6.30;;;;;;;10.83;100.00;99979.63;6257479;28;20132;-75
2021/11/05 04:48:07;;;;;;;8.52;6.18;;;;;;;10.76;100.00;100000.06;6278083;28;20052;-75
2021/11/05 04:51:08;;;;;;;15.25;8.43;;;;;;;10.80;100.00;100000.72;6277076;28;20136;-72
2021/11/05 04:54:09;;;;;;;11.43;7.60;;;;;;;10.79;100.00;100007.72;6258945;28;20052;-72
2021/11/05 04:57:10;;;;;;;11.20;7.93;;;;;;;10.88;100.00;100012.34;6242464;28;20045;-71
2021/11/05 05:00:11;;;;;;;14.63;7.72;;;;;;;10.88;100.00;100022.78;6275503;28;20072;-72
2021/11/05 05:03:12;;;;;;;10.98;9.25;;;;;;;10.96;100.00;100024.09;6242294;28;20040;-72
2021/11/05 05:06:12;;;;;;;13.40;8.95;;;;;;;11.00;100.00;100021.19;6276570;28;20069;-72
2021/11/05 05:09:13;;;;;;;14.27;9.38;;;;;;;11.03;100.00;100014.91;6258906;28;20045;-72
2021/11/05 05:12:14;;;;;;;25.70;13.55;;;;;;;11.03;100.00;100017.53;6275274;28;20086;-71
2021/11/05 05:15:16;;;;;;;24.75;19.00;;;;;;;11.06;100.00;100025.19;6258743;28;20463;-72
2021/11/05 05:18:17;;;;;;;17.90;11.38;;;;;;;11.09;100.00;100025.81;6276257;28;20041;-71
2021/11/05 05:21:17;;;;;;;27.45;11.50;;;;;;;11.07;100.00;100027.69;6275065;28;20051;-72
2021/11/05 05:24:18;;;;;;;21.65;10.00;;;;;;;11.12;100.00;100027.41;6258385;28;20053;-71
2021/11/05 05:27:19;;;;;;;26.27;10.63;;;;;;;11.18;100.00;100039.22;6276473;28;20053;-76
2021/11/05 05:30:20;;;;;;;155.35;11.52;;;;;;;11.14;100.00;100030.75;6276032;28;20091;-76
2021/11/05 05:33:20;;;;;;;100.05;11.13;;;;;;;11.08;100.00;100036.38;6275799;28;20041;-75
2021/11/05 05:36:21;;;;;;;237.55;12.80;;;;;;;11.05;100.00;100044.38;6277137;28;20126;-75
2021/11/05 05:39:22;;;;;;;106.85;12.05;;;;;;;11.13;100.00;100049.97;6276844;28;20128;-76
2021/11/05 05:42:23;;;;;;;94.40;12.13;;;;;;;11.14;100.00;100046.44;6275991;28;20452;-76
2021/11/05 05:45:26;;;;;;;214.98;13.43;;;;;;;11.13;100.00;100054.34;6242557;28;20049;-75
2021/11/05 05:48:26;;;;;;;369.75;15.38;;;;;;;10.98;100.00;100040.50;6275813;28;20048;-75
2021/11/05 05:51:32;;;;;;;281.48;12.82;;;;;;;10.99;100.00;100050.81;6298827;28;20053;-75
2021/11/05 05:54:33;;;;;;;256.77;12.32;;;;;;;10.94;100.00;100060.72;6300125;28;20093;-75
2021/11/05 05:57:33;;;;;;;253.98;13.35;;;;;;;10.88;100.00;100069.78;6298305;28;20040;-75
2021/11/05 06:00:37;;;;;;;110.38;10.45;;;;;;;10.75;100.00;100065.41;6282443;28;20040;-75
2021/11/05 06:03:37;;;;;;;62.03;11.75;;;;;;;10.62;100.00;100073.13;6298492;28;20068;-75
2021/11/05 06:06:38;;;;;;;15.90;11.98;;;;;;;10.60;100.00;100057.56;6298890;28;20049;-75
2021/11/05 06:09:39;;;;;;;17.13;12.60;;;;;;;10.63;100.00;100064.41;6299624;28;20051;-75
2021/11/05 06:12:40;;;;;;;16.13;11.68;;;;;;;10.59;100.00;100065.50;6297960;28;20086;-75
2021/11/05 06:15:41;;;;;;;18.27;12.10;;;;;;;10.51;100.00;100054.72;6297678;28;20536;-75
2021/11/05 06:18:42;;;;;;;19.98;12.95;;;;;;;10.54;100.00;100065.78;6290920;28;20044;-72
2021/11/05 06:21:43;;;;;;;31.95;12.75;;;;;;;10.65;100.00;100086.84;6289849;28;20040;-72
2021/11/05 06:24:44;;;;;;;18.92;12.98;;;;;;;10.70;100.00;100094.38;6272381;28;20157;-72
2021/11/05 06:27:44;;;;;;;19.75;12.60;;;;;;;10.79;100.00;100098.19;6273736;28;20488;-72
2021/11/05 06:30:45;;;;;;;25.08;12.68;;;;;;;10.85;100.00;100098.69;6293587;28;20044;-73
2021/11/05 06:33:46;;;;;;;17.17;12.45;;;;;;;10.94;100.00;100106.88;6298439;28;20044;-72
2021/11/05 06:36:47;;;;;;;20.20;12.70;;;;;;;11.01;100.00;100124.66;6298141;28;20067;-72
2021/11/05 06:39:48;;;;;;;19.95;13.27;;;;;;;10.97;100.00;100117.97;6280123;28;20056;-73
2021/11/05 06:42:49;;;;;;;23.25;13.77;;;;;;;10.93;100.00;100120.84;6280391;28;20087;-72
2021/11/05 06:45:55;;;;;;;21.95;14.23;;;;;;;10.97;100.00;100127.56;6279499;28;20044;-72
2021/11/05 06:48:56;;;;;;;26.05;16.17;;;;;;;10.91;100.00;100126.16;6297480;28;20037;-73
2021/11/05 06:51:57;;;;;;;26.25;16.85;;;;;;;10.98;100.00;100134.47;6297623;28;20087;-72
2021/11/05 06:54:58;;;;;;;26.48;16.98;;;;;;;11.04;100.00;100144.56;6296183;28;20041;-72
2021/11/05 06:57:58;;;;;;;22.95;15.63;;;;;;;11.11;100.00;100158.91;6296549;28;20057;-72
2021/11/05 07:00:59;;;;;;;28.42;16.30;;;;;;;11.09;100.00;100166.81;6297488;28;20036;-73
2021/11/05 07:04:00;;;;;;;29.42;16.80;;;;;;;11.13;100.00;100164.88;6279476;28;20052;-72
2021/11/05 07:07:01;;;;;;;30.55;17.52;;;;;;;11.18;100.00;100148.91;6278710;28;20463;-72
2021/11/05 07:10:04;;;;;;;22.98;16.75;;;;;;;11.33;100.00;100153.19;6297138;28;20042;-72
2021/11/05 07:13:05;;;;;;;26.60;15.98;;;;;;;11.41;100.00;100157.94;6297065;28;20069;-72
2021/11/05 07:16:06;;;;;;;20.98;14.77;;;;;;;11.44;100.00;100160.34;6262872;28;20058;-72
2021/11/05 07:19:07;;;;;;;23.40;15.48;;;;;;;11.44;100.00;100163.78;6295858;28;20036;-72
2021/11/05 07:22:08;;;;;;;22.35;14.30;;;;;;;11.52;100.00;100175.53;6295879;28;20072;-72
2021/11/05 07:25:11;;;;;;;21.00;15.35;;;;;;;11.57;100.00;100174.34;6296734;28;20058;-72
2021/11/05 07:28:13;;;;;;;20.35;14.48;;;;;;;11.66;100.00;100173.72;6296862;28;20114;-72
2021/11/05 07:31:13;;;;;;;20.88;15.35;;;;;;;11.64;100.00;100170.38;6295578;28;20487;-72
2021/11/05 07:34:14;;;;;;;21.50;15.75;;;;;;;11.70;100.00;100180.44;6278749;28;20058;-72
2021/11/05 07:37:17;;;;;;;21.85;15.57;;;;;;;11.68;100.00;100199.78;6295374;28;20047;-72
2021/11/05 07:40:19;;;;;;;21.27;14.77;;;;;;;11.55;100.00;100204.09;6295465;28;20120;-72
2021/11/05 07:43:21;;;;;;;23.02;15.25;;;;;;;11.41;100.00;100194.50;6296385;28;20045;-72
2021/11/05 07:46:22;;;;;;;;;;;;;;;11.29;100.00;100189.09;6295547;28;20066;-72
2021/11/05 07:49:23;;;;;;;21.80;14.35;;;;;;;11.27;100.00;100182.31;6296286;28;19936;-72
2021/11/05 07:52:24;;;;;;;24.20;14.65;;;;;;;11.33;100.00;100189.75;6296174;28;20048;-72
2021/11/05 07:55:25;;;;;;;20.55;13.85;;;;;;;11.23;100.00;100197.31;6296037;28;20040;-72
2021/11/05 07:58:26;;;;;;;19.27;13.52;;;;;;;11.17;100.00;100212.53;6278202;28;20044;-72
2021/11/05 08:01:28;;;;;;;18.73;13.43;;;;;;;11.07;100.00;100222.69;6294962;28;20039;-72
2021/11/05 08:04:30;;;;;;;19.30;14.60;;;;;;;11.03;100.00;100226.41;6295879;28;20407;-72
2021/11/05 08:07:31;;;;;;;24.77;14.73;;;;;;;11.04;100.00;100220.28;6294832;28;20175;-72
2021/11/05 08:10:32;;;;;;;21.95;14.82;;;;;;;10.96;100.00;100228.56;6295864;28;20143;-72
2021/11/05 08:13:33;;;;;;;26.88;17.42;;;;;;;10.93;100.00;100236.56;6278006;28;20044;-72
2021/11/05 08:16:34;;;;;;;28.50;17.42;;;;;;;10.96;100.00;100231.16;6261519;28;20380;-72
2021/11/05 08:19:35;;;;;;;25.33;17.15;;;;;;;10.98;100.00;100244.97;6294373;28;20040;-72
2021/11/05 08:22:36;;;;;;;24.40;16.75;;;;;;;10.91;100.00;100243.63;6277881;28;20040;-72
2021/11/05 08:25:37;;;;;;;23.42;16.45;;;;;;;10.91;100.00;100235.81;6294940;28;20055;-75
2021/11/05 08:28:38;;;;;;;23.67;16.27;;;;;;;11.06;100.00;100245.34;6294918;28;20044;-75
2021/11/05 08:31:39;;;;;;;25.15;16.55;;;;;;;11.04;100.00;100260.28;6261917;28;20124;-75
2021/11/05 08:34:40;;;;;;;22.48;15.88;;;;;;;11.07;100.00;100273.13;6278152;28;20051;-75
2021/11/05 08:37:42;;;;;;;23.30;15.85;;;;;;;11.17;100.00;100272.59;6295803;28;20040;-75
2021/11/05 08:40:44;;;;;;;;;;;;;;;11.15;100.00;100279.69;6295303;28;20483;-75
2021/11/05 08:43:48;;;;;;;24.92;15.43;;;;;;;11.22;100.00;100275.75;6328380;28;20371;-75
2021/11/05 08:46:49;;;;;;;26.02;15.35;;;;;;;11.24;100.00;100277.38;6295155;28;20044;-75
2021/11/05 08:49:53;;;;;;;21.83;14.85;;;;;;;11.41;100.00;100278.13;6294348;28;20064;-75
2021/11/05 08:52:54;;;;;;;20.40;14.60;;;;;;;11.44;100.00;100281.34;6295668;28;20430;-73
2021/11/05 08:55:54;;;;;;;21.80;14.38;;;;;;;11.48;100.00;100274.19;6294043;28;20045;-72
2021/11/05 08:58:56;;;;;;;19.95;13.02;;;;;;;11.53;100.00;100273.91;6295184;28;20132;-72
2021/11/05 09:01:56;;;;;;;17.30;11.68;;;;;;;11.58;100.00;100274.47;6294095;28;20123;-72
2021/11/05 09:04:57;;;;;;;20.10;12.23;;;;;;;11.58;100.00;100277.91;6295561;28;20040;-72
2021/11/05 09:07:58;;;;;;;17.30;10.93;;;;;;;11.66;100.00;100278.28;6293973;28;20040;-72
2021/11/05 09:11:01;;;;;;;13.60;10.15;;;;;;;11.67;100.00;100286.94;6295145;28;20044;-72
2021/11/05 09:14:02;;;;;;;;;;;;;;;11.79;100.00;100287.97;6294348;28;20145;-72
2021/11/05 09:17:03;;;;;;;21.38;13.23;;;;;;;11.88;100.00;100288.28;6295104;28;19943;-73
2021/11/05 09:20:06;;;;;;;30.45;13.88;;;;;;;11.97;100.00;100286.03;6277369;28;20044;-73
2021/11/05 09:23:08;;;;;;;20.42;10.57;;;;;;;11.85;100.00;100293.66;6293909;28;20075;-72
2021/11/05 09:26:09;;;;;;;12.48;8.18;;;;;;;11.77;100.00;100295.91;6300304;28;20076;-72
2021/11/05 09:29:10;;;;;;;15.27;9.07;;;;;;;11.79;100.00;100298.44;6317199;28;20055;-72
2021/11/05 09:32:11;;;;;;;18.63;10.10;;;;;;;11.79;100.00;100304.50;6320822;28;20520;-73
2021/11/05 09:35:12;;;;;;;26.75;10.88;;;;;;;11.78;100.00;100309.84;6288420;28;20415;-72
2021/11/05 09:38:14;;;;;;;18.30;11.05;;;;;;;11.79;100.00;100307.09;6305247;28;20403;-76
2021/11/05 09:41:15;;;;;;;25.40;14.63;;;;;;;11.88;100.00;100317.03;6322197;28;20145;-76
2021/11/05 09:44:16;;;;;;;18.02;11.55;;;;;;;11.89;100.00;100318.72;6304927;28;20288;-76
2021/11/05 09:47:16;;;;;;;15.68;10.27;;;;;;;11.78;100.00;100312.44;6321735;28;20063;-75
2021/11/05 09:50:21;;;;;;;14.60;10.02;;;;;;;11.84;100.00;100320.75;6321563;28;20051;-75
2021/11/05 09:53:25;;;;;;;18.77;10.35;;;;;;;11.80;100.00;100319.25;6304710;28;20093;-76
2021/11/05 09:56:26;;;;;;;20.67;11.02;;;;;;;11.95;100.00;100316.66;6297173;28;20187;-72
2021/11/05 09:59:26;;;;;;;15.57;10.93;;;;;;;11.99;100.00;100320.75;6281345;28;20442;-76
2021/11/05 10:02:27;;;;;;;19.58;11.80;;;;;;;11.94;100.00;100328.03;6281396;28;20392;-72
2021/11/05 10:05:28;;;;;;;14.65;9.60;;;;;;;11.79;100.00;100333.25;6297546;28;20041;-72
2021/11/05 10:08:32;;;;;;;12.85;9.25;;;;;;;11.81;100.00;100341.00;6297569;28;20071;-72
2021/11/05 10:11:33;;;;;;;21.98;12.85;;;;;;;11.62;100.00;100346.53;6298663;28;20049;-72
2021/11/05 10:14:34;;;;;;;26.50;13.70;;;;;;;11.49;100.00;100326.34;6297381;28;20045;-72
2021/11/05 10:17:36;;;;;;;37.88;18.60;;;;;;;11.66;100.00;100319.25;6264077;28;20051;-71
2021/11/05 10:20:37;;;;;;;19.33;11.30;;;;;;;11.67;100.00;100319.19;6298589;28;20045;-71
2021/11/05 10:23:40;;;;;;;14.77;10.15;;;;;;;11.80;100.00;100318.44;6298513;28;20273;-72
2021/11/05 10:26:41;;;;;;;18.92;11.70;;;;;;;11.68;100.00;100317.41;6296966;28;20048;-72
2021/11/05 10:29:42;;;;;;;15.35;9.10;;;;;;;11.47;100.00;100315.16;6298474;28;20036;-75
2021/11/05 10:32:57;;;;;;;14.75;10.05;;;;;;;11.46;100.00;100291.72;6298409;28;20067;-74
2021/11/05 10:36:01;;;;;;;18.80;10.15;;;;;;;11.54;100.00;100289.50;6298325;28;20469;-74
2021/11/05 10:39:04;;;;;;;12.02;8.70;;;;;;;11.87;100.00;100294.41;6296960;28;20423;-75
2021/11/05 10:42:05;;;;;;;10.27;6.07;;;;;;;11.90;100.00;100298.63;6279269;28;20053;-75
2021/11/05 10:45:21;;;;;;;10.70;6.82;;;;;;;11.93;100.00;100292.38;6298262;28;20407;-72
2021/11/05 10:48:26;;;;;;;12.73;7.65;;;;;;;12.00;100.00;100306.72;6297889;28;20090;-71
2021/11/05 10:51:29;;;;;;;9.05;6.32;;;;;;;11.78;100.00;100302.00;6296441;28;20323;-71
2021/11/05 10:55:00;;;;;;;11.05;7.18;;;;;;;11.88;100.00;100300.47;6297762;28;20040;-71
2021/11/05 10:58:01;;;;;;;6.35;4.63;;;;;;;11.71;100.00;100306.75;6297672;28;20040;-71
2021/11/05 11:01:10;;;;;;;6.03;4.33;;;;;;;11.67;100.00;100306.09;6296483;28;20037;-75
2021/11/05 11:04:13;;;;;;;10.07;5.78;;;;;;;11.66;100.00;100303.59;6297585;28;20079;-75
2021/11/05 11:07:34;;;;;;;8.38;5.93;;;;;;;11.68;99.09;100306.94;6296578;28;20036;-71
2021/11/05 11:10:38;;;;;;;8.15;3.20;;;;;;;11.59;99.11;100310.97;6297454;28;20041;-74
2021/11/05 11:13:39;;;;;;;10.45;5.03;;;;;;;11.52;98.27;100298.38;6297191;28;20040;-75
2021/11/05 11:16:43;;;;;;;8.23;4.53;;;;;;;11.34;95.52;100301.13;6297181;28;20445;-75
2021/11/05 11:19:46;;;;;;;10.98;4.60;;;;;;;11.31;97.33;100309.19;6293032;28;20033;-74
2021/11/05 11:22:47;;;;;;;11.48;5.82;;;;;;;11.36;97.53;100299.28;6283606;28;20196;-71
2021/11/05 11:25:49;;;;;;;12.32;5.15;;;;;;;11.41;98.88;100305.06;6292292;28;20048;-71
2021/11/05 11:28:50;;;;;;;6.97;4.77;;;;;;;11.44;100.00;100304.88;6295689;28;20514;-71
2021/11/05 11:31:53;;;;;;;6.18;4.28;;;;;;;11.46;100.00;100320.47;6296953;28;20786;-71
2021/11/05 11:34:54;;;;;;;8.85;4.72;;;;;;;11.32;100.00;100316.06;6297156;28;20494;-71
2021/11/05 11:37:56;;;;;;;9.48;5.10;;;;;;;11.28;100.00;100325.88;6295519;28;20048;-71
2021/11/05 11:40:58;;;;;;;11.57;5.25;;;;;;;11.24;100.00;100329.59;6295434;28;20041;-71
2021/11/05 11:44:01;;;;;;;5.38;3.88;;;;;;;11.24;95.67;100332.22;6295499;28;20044;-71
2021/11/05 11:47:05;;;;;;;;;;;;;;;11.14;97.24;100344.13;6295763;28;20083;-71
2021/11/05 11:50:30;;;;;;;4.70;3.20;;;;;;;11.01;97.31;100357.03;6296494;28;20337;-71
2021/11/05 11:53:31;;;;;;;19.45;5.10;;;;;;;10.92;97.29;100349.75;6274411;28;20106;-71
2021/11/05 11:56:37;;;;;;;23.17;5.10;;;;;;;10.98;99.46;100348.56;6270819;28;20045;-72
2021/11/05 11:59:39;;;;;;;13.05;5.80;;;;;;;11.01;99.34;100344.00;6285931;28;20037;-75
2021/11/05 12:02:44;;;;;;;20.80;5.50;;;;;;;11.00;100.00;100331.88;6291098;28;20047;-74
2021/11/05 12:05:47;;;;;;;6.90;4.05;;;;;;;11.05;98.76;100322.00;6296244;28;20055;-75
2021/11/05 12:08:49;;;;;;;7.43;3.38;;;;;;;11.24;96.97;100306.09;6296137;28;20043;-74
2021/11/05 12:12:11;;;;;;;5.93;3.95;;;;;;;11.41;99.97;100325.16;6296229;28;20048;-75
2021/11/05 12:15:12;;;;;;;6.50;3.60;;;;;;;11.44;96.17;100332.78;6294952;28;20056;-74
2021/11/05 12:18:14;;;;;;;14.00;4.63;;;;;;;11.41;96.00;100346.06;6294399;28;20483;-75
2021/11/05 12:21:18;;;;;;;11.85;4.40;;;;;;;11.35;99.30;100336.81;6278301;28;20041;-74
2021/11/05 12:24:20;;;;;;;11.32;3.78;;;;;;;11.56;99.41;100331.22;6296110;28;20044;-74
2021/11/05 12:27:26;;;;;;;14.77;3.80;;;;;;;11.64;97.98;100342.88;6295883;28;20056;-75
2021/11/05 12:30:27;;;;;;;8.95;3.22;;;;;;;11.68;98.99;100354.00;6295904;28;20047;-71
2021/11/05 12:33:33;;;;;;;8.52;3.55;;;;;;;11.61;98.64;100347.44;6295676;28;20044;-71
2021/11/05 12:36:53;;;;;;;6.93;3.72;;;;;;;11.38;98.78;100349.66;6295733;28;20501;-71
2021/11/05 12:39:55;;;;;;;9.10;3.70;;;;;;;11.31;95.10;100361.41;6295695;28;20086;-70
2021/11/05 12:42:58;;;;;;;5.63;3.40;;;;;;;11.25;96.67;100351.34;6295732;28;20082;-74
2021/11/05 12:46:04;;;;;;;7.72;3.33;;;;;;;11.32;96.18;100344.81;6294292;28;20273;-71
2021/11/05 12:49:05;;;;;;;5.43;3.15;;;;;;;11.36;96.61;100346.31;6295351;28;20044;-71
2021/11/05 12:52:05;;;;;;;7.70;4.10;;;;;;;11.38;96.09;100338.38;6294481;28;20169;-74
2021/11/05 12:55:06;;;;;;;5.95;4.05;;;;;;;11.37;94.72;100341.94;6294404;28;20085;-71
2021/11/05 12:58:12;;;;;;;7.93;3.80;;;;;;;11.37;95.56;100334.09;6277645;28;20075;-71
2021/11/05 13:01:18;;;;;;;4.10;2.90;;;;;;;11.23;94.99;100340.97;6295887;28;20090;-71
2021/11/05 13:04:21;;;;;;;9.63;3.80;;;;;;;11.23;97.31;100353.19;6295488;28;20487;-75
2021/11/05 13:07:22;;;;;;;6.30;4.18;;;;;;;11.32;98.07;100359.63;6298623;28;20057;-71
2021/11/05 13:10:28;;;;;;;8.45;4.60;;;;;;;11.34;99.88;100363.00;6300390;28;20450;-71
2021/11/05 13:13:29;;;;;;;7.95;4.57;;;;;;;11.11;100.00;100361.75;6300287;28;20054;-74
2021/11/05 13:16:34;;;;;;;7.50;4.20;;;;;;;11.18;100.00;100369.16;6264729;28;20569;-71
2021/11/05 13:19:35;;;;;;;6.55;4.53;;;;;;;11.20;100.00;100380.34;6275186;28;20043;-71
2021/11/05 13:22:40;;;;;;;6.43;4.20;;;;;;;11.26;99.44;100385.22;6280185;28;20041;-71
2021/11/05 13:25:44;;;;;;;7.00;4.13;;;;;;;11.25;100.00;100393.13;6291269;28;20052;-74
2021/11/05 13:28:46;;;;;;;6.68;4.30;;;;;;;11.33;100.00;100403.13;6296164;28;20041;-75
2021/11/05 13:31:49;;;;;;;10.55;7.80;;;;;;;11.39;100.00;100408.00;6278560;28;20047;-74
2021/11/05 13:34:50;;;;;;;13.25;8.95;;;;;;;11.31;100.00;100413.66;6263030;28;20143;-74
2021/11/05 13:38:03;;;;;;;9.68;6.93;;;;;;;11.36;100.00;100413.41;6257241;28;20431;-74
2021/11/05 13:41:08;;;;;;;;;;;;;;;11.25;100.00;100399.19;6274239;28;20045;-75
2021/11/05 13:44:14;;;;;;;11.82;4.75;;;;;;;11.15;100.00;100410.25;6274821;28;19925;-75
2021/11/05 13:47:18;;;;;;;8.55;5.72;;;;;;;11.12;100.00;100428.72;6274722;28;20049;-75
2021/11/05 13:50:22;;;;;;;11.93;6.68;;;;;;;11.19;100.00;100424.81;6274209;28;20057;-71
2021/11/05 13:53:23;;;;;;;5.57;4.60;;;;;;;11.08;100.00;100423.69;6274727;28;20033;-71